Time;durP1;ratioP1;P1;durP2;ratioP2;P2;SDS_P1;SDS_P2;PMS_P1;PMS_P2;Temp;Humidity;BMP_temperature;BMP_pressure;BME280_temperature;BME280_humidity;BME280_pressure;Samples;Min_cycle;Max_cycle;Signal;HPM_P1;HPM_P2
2023/10/23 00:01:59;;;;;;;3.90;2.40;;;22.40;96.70;;;;;;4996922;28;20501;-70
2023/10/23 00:04:26;;;;;;;3.03;1.60;;;22.40;96.70;;;;;;4997714;28;20484;-71
2023/10/23 00:06:54;;;;;;;2.03;1.83;;;22.40;96.70;;;;;;4999894;28;20458;-71
2023/10/23 00:09:21;;;;;;;3.50;2.23;;;22.40;96.80;;;;;;5000503;28;21074;-71
2023/10/23 00:11:48;;;;;;;3.00;2.23;;;22.40;97.10;;;;;;5002436;28;20459;-70
2023/10/23 00:14:14;;;;;;;4.53;2.13;;;22.30;96.70;;;;;;5000782;28;20466;-71
2023/10/23 00:16:41;;;;;;;2.23;1.77;;;22.40;96.80;;;;;;5000982;28;20459;-71
2023/10/23 00:19:08;;;;;;;2.13;1.50;;;22.40;96.80;;;;;;4998903;28;20765;-70
2023/10/23 00:21:35;;;;;;;2.27;1.37;;;22.40;96.80;;;;;;5003722;28;20466;-71
2023/10/23 00:24:03;;;;;;;3.60;2.03;;;22.30;96.70;;;;;;5003275;28;20470;-71
2023/10/23 00:26:29;;;;;;;2.73;1.97;;;22.30;96.70;;;;;;4994950;28;20470;-72
2023/10/23 00:28:56;;;;;;;3.60;2.10;;;22.40;96.80;;;;;;4994367;28;20467;-71
2023/10/23 00:31:23;;;;;;;3.33;1.67;;;22.30;96.70;;;;;;4997012;28;20458;-71
2023/10/23 00:33:50;;;;;;;2.57;1.80;;;22.30;96.80;;;;;;5000209;28;20457;-71
2023/10/23 00:36:16;;;;;;;2.80;2.00;;;22.30;96.80;;;;;;5001578;28;20469;-71
2023/10/23 00:38:43;;;;;;;2.33;1.63;;;22.30;96.80;;;;;;5002980;28;20491;-70
2023/10/23 00:41:11;;;;;;;1.60;1.50;;;22.30;96.80;;;;;;5002794;28;20459;-70
2023/10/23 00:43:38;;;;;;;3.93;1.80;;;22.30;96.80;;;;;;5003151;28;20491;-71
2023/10/23 00:46:11;;;;;;;2.30;1.87;;;22.30;96.80;;;;;;5000752;28;20472;-71
2023/10/23 00:48:38;;;;;;;2.10;1.90;;;22.40;96.90;;;;;;5001387;28;20467;-71
2023/10/23 00:51:05;;;;;;;2.20;2.00;;;22.20;96.80;;;;;;5003199;28;20553;-71
2023/10/23 00:53:34;;;;;;;2.90;2.00;;;22.20;96.80;;;;;;4999576;28;20462;-71
2023/10/23 00:56:04;;;;;;;3.13;1.67;;;22.20;96.80;;;;;;5001793;28;20454;-71
2023/10/23 00:58:33;;;;;;;2.40;1.40;;;22.20;96.90;;;;;;4999019;28;20502;-71
2023/10/23 01:01:01;;;;;;;2.43;2.23;;;22.20;96.80;;;;;;5001881;28;20460;-71
2023/10/23 01:03:28;;;;;;;1.53;1.43;;;22.20;96.80;;;;;;4997686;22;21168;-66
2023/10/23 01:05:54;;;;;;;2.70;1.70;;;22.20;96.90;;;;;;4981175;28;20481;-66
2023/10/23 01:08:20;;;;;;;2.73;1.60;;;22.20;96.90;;;;;;4982055;28;20983;-66
2023/10/23 01:10:47;;;;;;;1.40;1.30;;;22.20;96.90;;;;;;4982135;28;20201;-66
2023/10/23 01:13:15;;;;;;;2.03;1.83;;;22.20;96.90;;;;;;4978707;28;20475;-66
2023/10/23 01:15:43;;;;;;;3.20;2.00;;;22.20;96.90;;;;;;4981177;28;20459;-67
2023/10/23 01:18:10;;;;;;;1.73;1.40;;;22.20;96.90;;;;;;4972615;28;20766;-66
2023/10/23 01:20:37;;;;;;;2.27;1.53;;;22.20;96.90;;;;;;4982648;28;20805;-66
2023/10/23 01:23:04;;;;;;;2.77;1.40;;;22.20;96.90;;;;;;4979995;28;21179;-66
2023/10/23 01:25:32;;;;;;;2.47;2.00;;;22.20;97.00;;;;;;4982351;28;20463;-66
2023/10/23 01:27:59;;;;;;;4.50;2.40;;;22.20;97.30;;;;;;4977849;28;20467;-66
2023/10/23 01:30:25;;;;;;;1.80;1.63;;;22.20;97.00;;;;;;4978649;28;20464;-66
2023/10/23 01:32:52;;;;;;;2.13;1.50;;;22.10;96.90;;;;;;4981405;28;20447;-66
2023/10/23 01:35:19;;;;;;;2.20;1.60;;;22.10;96.90;;;;;;4981831;28;22052;-66
2023/10/23 01:37:47;;;;;;;2.57;1.70;;;22.00;96.80;;;;;;4978646;28;22066;-66
2023/10/23 01:40:14;;;;;;;2.33;1.50;;;22.10;96.90;;;;;;4979854;28;20471;-66
2023/10/23 01:42:43;;;;;;;2.63;1.50;;;22.10;96.90;;;;;;4981408;28;20470;-66
2023/10/23 01:45:11;;;;;;;1.50;1.40;;;22.10;96.90;;;;;;4978995;28;20475;-66
2023/10/23 01:47:37;;;;;;;3.43;1.83;;;22.10;96.90;;;;;;4977320;28;20472;-66
2023/10/23 01:50:05;;;;;;;2.30;2.10;;;22.10;97.00;;;;;;4979631;28;20459;-66
2023/10/23 01:52:31;;;;;;;1.50;1.40;;;22.10;97.00;;;;;;4978308;28;20466;-65
2023/10/23 01:54:59;;;;;;;2.90;1.57;;;22.10;97.00;;;;;;4982716;28;20467;-66
2023/10/23 01:57:26;;;;;;;1.67;1.57;;;22.10;97.00;;;;;;4979236;28;21037;-66
2023/10/23 01:59:54;;;;;;;3.73;2.00;;;22.10;97.00;;;;;;4982738;28;20475;-66
2023/10/23 02:02:21;;;;;;;1.67;1.57;;;22.10;97.00;;;;;;4980784;28;21167;-66
2023/10/23 02:04:48;;;;;;;2.73;1.50;;;22.00;96.90;;;;;;4980921;28;20573;-67
2023/10/23 02:07:15;;;;;;;2.10;1.70;;;22.00;97.00;;;;;;4975545;28;20980;-66
2023/10/23 02:09:41;;;;;;;3.00;1.70;;;22.00;97.00;;;;;;4981950;28;20460;-66
2023/10/23 02:12:08;;;;;;;1.87;1.60;;;22.00;97.00;;;;;;4981895;28;20471;-66
2023/10/23 02:14:35;;;;;;;1.50;1.40;;;21.90;97.00;;;;;;4983178;28;20460;-66
2023/10/23 02:17:03;;;;;;;4.20;2.03;;;22.00;97.00;;;;;;4978427;28;20470;-66
2023/10/23 02:19:30;;;;;;;2.20;1.27;;;22.00;97.00;;;;;;4976449;28;21003;-66
2023/10/23 02:21:57;;;;;;;2.33;1.80;;;22.00;97.10;;;;;;4980804;28;20587;-66
2023/10/23 02:24:24;;;;;;;1.83;1.63;;;22.00;97.00;;;;;;4981176;28;20476;-65
2023/10/23 02:26:50;;;;;;;3.60;1.80;;;21.90;97.00;;;;;;4976493;28;20742;-67
2023/10/23 02:29:17;;;;;;;2.97;1.90;;;21.90;97.00;;;;;;4970182;28;20452;-65
2023/10/23 02:31:44;;;;;;;2.50;1.63;;;22.00;97.10;;;;;;4980726;28;20456;-66
2023/10/23 02:34:12;;;;;;;2.83;1.70;;;21.90;97.00;;;;;;4967587;28;20475;-66
2023/10/23 02:36:39;;;;;;;1.70;1.30;;;21.90;97.00;;;;;;4979364;28;21249;-66
2023/10/23 02:39:06;;;;;;;1.93;1.33;;;21.90;97.00;;;;;;4980816;28;20464;-67
2023/10/23 02:41:32;;;;;;;2.73;1.83;;;21.90;97.10;;;;;;4977690;28;20560;-66
2023/10/23 02:43:59;;;;;;;2.70;2.13;;;21.90;97.00;;;;;;4977351;28;21053;-65
2023/10/23 02:46:26;;;;;;;1.93;1.43;;;21.90;97.00;;;;;;4979662;28;20470;-66
2023/10/23 02:48:53;;;;;;;2.57;1.70;;;21.90;97.10;;;;;;4977461;28;20812;-67
2023/10/23 02:51:21;;;;;;;1.60;1.43;;;21.90;97.10;;;;;;4978610;28;20474;-67
2023/10/23 02:53:47;;;;;;;2.23;1.50;;;21.90;97.20;;;;;;4978595;28;20619;-66
2023/10/23 02:56:14;;;;;;;2.00;1.70;;;21.90;97.10;;;;;;4978690;28;20944;-66
2023/10/23 02:58:41;;;;;;;2.73;2.00;;;21.90;97.00;;;;;;4976952;28;20455;-66
2023/10/23 03:01:15;;;;;;;2.20;1.93;;;21.90;97.10;;;;;;4977265;28;20655;-66
2023/10/23 03:03:43;;;;;;;1.83;1.50;;;22.00;97.10;;;;;;4978738;28;20546;-67
2023/10/23 03:06:10;;;;;;;2.13;1.50;;;22.00;97.10;;;;;;4977821;28;20460;-66
2023/10/23 03:08:38;;;;;;;2.30;1.33;;;21.80;97.00;;;;;;4980420;28;20471;-66
2023/10/23 03:11:05;;;;;;;2.20;1.47;;;21.80;97.10;;;;;;4979357;28;20467;-66
2023/10/23 03:13:32;;;;;;;1.30;1.20;;;21.80;97.10;;;;;;4976027;28;20464;-66
2023/10/23 03:15:58;;;;;;;2.30;1.80;;;21.80;97.10;;;;;;4978465;28;20821;-66
2023/10/23 03:18:25;;;;;;;2.00;1.63;;;21.80;97.10;;;;;;4976975;28;20463;-66
2023/10/23 03:20:52;;;;;;;2.43;1.50;;;21.80;97.10;;;;;;4981341;28;20963;-65
2023/10/23 03:23:19;;;;;;;1.77;1.67;;;21.80;97.10;;;;;;4979401;28;21082;-65
2023/10/23 03:25:47;;;;;;;1.97;1.63;;;21.80;97.10;;;;;;4980555;28;20562;-66
2023/10/23 03:28:14;;;;;;;2.60;2.00;;;21.70;97.00;;;;;;4978343;28;20459;-67
2023/10/23 03:30:41;;;;;;;1.80;1.43;;;21.80;97.10;;;;;;4978668;28;20470;-65
2023/10/23 03:33:07;;;;;;;2.33;1.60;;;21.70;97.10;;;;;;4979923;28;21046;-67
2023/10/23 03:35:35;;;;;;;2.00;1.40;;;21.80;97.20;;;;;;4979278;28;20459;-66
2023/10/23 03:38:02;;;;;;;2.08;1.95;;;21.70;97.10;;;;;;4977527;28;20582;-66
2023/10/23 03:40:29;;;;;;;2.47;1.50;;;21.80;97.20;;;;;;4980342;28;20201;-66
2023/10/23 03:42:57;;;;;;;1.87;1.30;;;21.70;97.10;;;;;;4979512;28;20471;-65
2023/10/23 03:45:23;;;;;;;1.90;1.60;;;21.70;97.10;;;;;;4978439;28;20515;-66
2023/10/23 03:47:50;;;;;;;1.90;1.57;;;21.70;97.10;;;;;;4980563;28;20466;-67
2023/10/23 03:50:17;;;;;;;2.13;1.67;;;21.70;97.20;;;;;;4979651;28;20469;-66
2023/10/23 03:52:44;;;;;;;1.63;1.23;;;21.70;97.20;;;;;;4977818;28;20463;-65
2023/10/23 03:55:10;;;;;;;2.60;1.97;;;21.70;97.20;;;;;;4981461;28;20473;-65
2023/10/23 03:57:37;;;;;;;2.93;1.57;;;21.70;97.20;;;;;;4980732;28;20713;-65
2023/10/23 04:00:07;;;;;;;1.60;1.43;;;21.70;97.20;;;;;;4981991;28;20462;-65
2023/10/23 04:02:33;;;;;;;4.33;1.77;;;21.70;97.20;;;;;;4978698;28;20465;-66
2023/10/23 04:05:01;;;;;;;3.43;1.93;;;21.70;97.20;;;;;;4982269;28;20487;-67
2023/10/23 04:07:27;;;;;;;2.20;1.53;;;21.70;97.20;;;;;;4981263;28;20460;-67
2023/10/23 04:09:54;;;;;;;1.50;1.40;;;21.60;97.20;;;;;;4983488;28;20478;-66
2023/10/23 04:12:21;;;;;;;2.13;1.40;;;21.70;97.20;;;;;;4983319;28;20490;-66
2023/10/23 04:14:47;;;;;;;1.80;1.50;;;21.60;97.10;;;;;;4976509;28;20572;-66
2023/10/23 04:17:16;;;;;;;3.30;1.70;;;21.60;97.20;;;;;;4979000;28;20460;-66
2023/10/23 04:19:43;;;;;;;1.20;1.00;;;21.60;97.60;;;;;;4984785;28;20467;-66
2023/10/23 04:22:09;;;;;;;1.93;1.57;;;21.60;97.20;;;;;;4985022;28;20460;-66
2023/10/23 04:24:36;;;;;;;1.50;1.30;;;21.60;97.20;;;;;;4985638;28;20490;-66
2023/10/23 04:27:04;;;;;;;2.87;2.10;;;21.70;97.30;;;;;;4975363;28;21114;-66
2023/10/23 04:29:31;;;;;;;1.90;1.70;;;21.60;97.20;;;;;;4981229;28;20468;-66
2023/10/23 04:31:58;;;;;;;1.73;1.47;;;21.60;97.20;;;;;;4974903;28;20793;-67
2023/10/23 04:34:26;;;;;;;1.70;1.50;;;21.60;97.20;;;;;;4974640;28;20455;-67
2023/10/23 04:36:53;;;;;;;2.03;1.77;;;21.70;97.30;;;;;;4982593;28;20455;-67
2023/10/23 04:39:19;;;;;;;2.03;1.67;;;21.60;97.20;;;;;;4984706;28;21237;-66
2023/10/23 04:41:46;;;;;;;1.70;1.60;;;21.60;97.30;;;;;;4984181;28;20466;-67
2023/10/23 04:44:13;;;;;;;1.43;1.20;;;21.60;97.20;;;;;;4980860;28;20477;-67
2023/10/23 04:46:40;;;;;;;1.73;1.43;;;21.60;97.20;;;;;;4979674;28;20460;-65
2023/10/23 04:49:06;;;;;;;2.30;1.53;;;21.70;97.30;;;;;;4980970;28;20496;-66
2023/10/23 04:51:35;;;;;;;2.60;1.70;;;21.50;97.20;;;;;;4984073;28;20494;-66
2023/10/23 04:54:01;;;;;;;3.20;2.00;;;21.50;97.20;;;;;;4980630;28;20829;-66
2023/10/23 04:56:28;;;;;;;1.40;1.30;;;21.60;97.30;;;;;;4979964;28;20494;-66
2023/10/23 04:58:55;;;;;;;1.90;1.73;;;21.50;97.20;;;;;;4981271;28;20212;-66
2023/10/23 05:01:22;;;;;;;3.10;1.70;;;21.60;97.30;;;;;;4980365;28;20796;-67
2023/10/23 05:03:49;;;;;;;2.10;1.50;;;21.50;97.30;;;;;;4978460;28;20511;-66
2023/10/23 05:06:15;;;;;;;1.77;1.63;;;21.50;97.30;;;;;;4979518;28;21235;-66
2023/10/23 05:08:44;;;;;;;1.90;1.30;;;21.50;97.30;;;;;;4982108;28;20463;-66
2023/10/23 05:11:12;;;;;;;2.50;1.27;;;21.50;97.30;;;;;;4982728;28;20935;-66
2023/10/23 05:13:39;;;;;;;2.10;1.90;;;21.50;97.30;;;;;;4979101;28;20519;-67
2023/10/23 05:16:06;;;;;;;2.50;1.47;;;21.50;97.30;;;;;;4980921;28;20478;-67
2023/10/23 05:18:33;;;;;;;1.60;1.50;;;21.50;97.30;;;;;;4980343;28;20824;-66
2023/10/23 05:21:06;;;;;;;2.10;1.60;;;21.50;97.30;;;;;;4984269;28;20978;-66
2023/10/23 05:23:32;;;;;;;1.83;1.70;;;21.50;97.30;;;;;;4976865;28;20486;-66
2023/10/23 05:26:01;;;;;;;2.90;1.58;;;21.50;97.30;;;;;;4982120;28;20828;-66
2023/10/23 05:28:27;;;;;;;1.50;1.37;;;21.50;97.30;;;;;;4981516;28;20196;-66
2023/10/23 05:30:54;;;;;;;3.70;1.67;;;21.50;97.30;;;;;;4981591;28;20473;-67
2023/10/23 05:33:21;;;;;;;1.90;1.43;;;21.40;97.30;;;;;;4975918;28;20808;-65
2023/10/23 05:35:48;;;;;;;1.73;1.43;;;21.50;97.30;;;;;;4981087;28;20471;-66
2023/10/23 05:38:14;;;;;;;2.60;1.90;;;21.40;97.30;;;;;;4984941;28;20460;-67
2023/10/23 05:40:41;;;;;;;1.57;1.33;;;21.40;97.30;;;;;;4985525;28;20464;-67
2023/10/23 05:43:11;;;;;;;1.50;1.20;;;21.40;97.50;;;;;;4981185;28;22079;-66
2023/10/23 05:45:38;;;;;;;1.70;1.50;;;21.40;97.30;;;;;;4981328;28;20529;-66
2023/10/23 05:48:05;;;;;;;1.80;1.50;;;21.50;97.40;;;;;;4979896;28;20466;-66
2023/10/23 05:50:32;;;;;;;1.60;1.23;;;21.40;97.30;;;;;;4978036;28;20466;-66
2023/10/23 05:52:58;;;;;;;1.83;1.60;;;21.40;97.30;;;;;;4981093;28;20474;-65
2023/10/23 05:55:25;;;;;;;1.57;1.20;;;21.40;97.40;;;;;;4981201;28;20474;-65
2023/10/23 05:57:52;;;;;;;1.33;1.10;;;21.40;97.30;;;;;;4980528;28;20460;-65
2023/10/23 06:00:20;;;;;;;1.43;1.30;;;21.40;97.30;;;;;;4978467;28;20492;-65
2023/10/23 06:02:47;;;;;;;1.60;1.50;;;21.40;97.30;;;;;;4977833;28;20472;-65
2023/10/23 06:05:14;;;;;;;1.70;1.50;;;21.40;97.40;;;;;;4979582;28;20491;-65
2023/10/23 06:07:41;;;;;;;1.90;1.43;;;21.40;97.40;;;;;;4981552;28;20468;-65
2023/10/23 06:10:08;;;;;;;1.27;1.17;;;21.40;97.30;;;;;;4980445;28;20476;-66
2023/10/23 06:12:35;;;;;;;1.40;1.30;;;21.40;97.40;;;;;;4981648;28;20474;-65
2023/10/23 06:15:03;;;;;;;1.93;1.73;;;21.40;97.40;;;;;;4971341;28;20468;-65
2023/10/23 06:17:31;;;;;;;1.50;1.30;;;21.40;97.40;;;;;;4974913;28;20543;-65
2023/10/23 06:19:59;;;;;;;2.00;1.80;;;21.40;97.50;;;;;;4979958;28;20467;-65
2023/10/23 06:22:26;;;;;;;2.77;1.40;;;21.40;97.60;;;;;;4982486;28;20817;-65
2023/10/23 06:24:53;;;;;;;2.20;1.80;;;21.40;97.70;;;;;;4981522;28;20487;-65
2023/10/23 06:27:19;;;;;;;2.50;1.50;;;21.40;97.80;;;;;;4979776;28;21171;-65
2023/10/23 06:29:46;;;;;;;1.50;1.40;;;21.40;97.90;;;;;;4977241;28;20471;-65
2023/10/23 06:32:15;;;;;;;1.80;1.43;;;21.40;97.90;;;;;;4976824;28;20467;-65
2023/10/23 06:34:43;;;;;;;1.83;1.33;;;21.40;97.90;;;;;;4979266;28;20478;-65
2023/10/23 06:37:10;;;;;;;1.73;1.30;;;21.50;98.00;;;;;;4970616;28;20489;-65
2023/10/23 06:39:37;;;;;;;1.50;1.40;;;21.50;98.10;;;;;;4977869;28;20961;-65
2023/10/23 06:42:04;;;;;;;2.20;1.60;;;21.50;98.10;;;;;;4980009;28;20455;-65
2023/10/23 06:44:30;;;;;;;1.80;1.30;;;21.50;98.10;;;;;;4974267;28;20459;-65
2023/10/23 06:46:57;;;;;;;1.80;1.30;;;21.50;98.10;;;;;;4969295;28;20474;-65
2023/10/23 06:49:24;;;;;;;1.50;1.30;;;21.60;98.20;;;;;;4974735;28;20475;-65
2023/10/23 06:51:52;;;;;;;1.40;1.30;;;21.60;98.20;;;;;;4981759;28;20460;-65
2023/10/23 06:54:20;;;;;;;1.73;1.33;;;21.60;98.10;;;;;;4975825;28;20469;-65
2023/10/23 06:56:47;;;;;;;2.00;1.80;;;21.60;98.10;;;;;;4979266;28;20521;-65
2023/10/23 06:59:13;;;;;;;2.03;1.83;;;21.60;98.10;;;;;;4977436;28;21078;-65
2023/10/23 07:01:40;;;;;;;1.80;1.43;;;21.60;98.10;;;;;;4978815;28;20459;-65
2023/10/23 07:04:07;;;;;;;2.50;2.10;;;21.60;98.00;;;;;;4977330;28;20459;-65
2023/10/23 07:06:34;;;;;;;3.30;2.80;;;21.80;98.10;;;;;;4977753;28;20485;-65
2023/10/23 07:09:02;;;;;;;2.10;1.90;;;21.70;98.00;;;;;;4981723;28;20459;-66
2023/10/23 07:11:29;;;;;;;2.73;2.20;;;21.70;98.00;;;;;;4972630;28;20460;-65
2023/10/23 07:13:56;;;;;;;4.90;3.37;;;21.70;97.90;;;;;;4979342;28;21065;-65
2023/10/23 07:16:23;;;;;;;2.50;2.30;;;21.70;98.00;;;;;;4975402;28;20476;-65
2023/10/23 07:18:50;;;;;;;3.20;2.80;;;21.70;97.90;;;;;;4979827;28;20459;-65
2023/10/23 07:21:17;;;;;;;3.53;2.90;;;21.70;97.90;;;;;;4980411;28;20565;-65
2023/10/23 07:23:43;;;;;;;2.90;2.70;;;21.70;97.90;;;;;;4982431;28;20868;-65
2023/10/23 07:26:12;;;;;;;4.07;3.67;;;21.80;97.90;;;;;;4980993;28;20483;-65
2023/10/23 07:28:40;;;;;;;3.27;2.97;;;21.80;97.90;;;;;;4979436;28;20468;-65
2023/10/23 07:31:07;;;;;;;3.13;2.63;;;21.80;97.90;;;;;;4981751;28;20463;-65
2023/10/23 07:33:34;;;;;;;4.23;3.00;;;21.80;97.90;;;;;;4984763;28;20462;-65
2023/10/23 07:36:02;;;;;;;3.97;3.57;;;21.80;97.80;;;;;;4982971;28;20478;-65
2023/10/23 07:38:29;;;;;;;3.93;3.43;;;21.80;97.80;;;;;;4984498;28;20460;-65
2023/10/23 07:40:56;;;;;;;3.37;3.10;;;21.90;97.80;;;;;;4983327;28;20509;-65
2023/10/23 07:43:24;;;;;;;3.80;3.50;;;21.90;97.80;;;;;;4982292;28;20492;-65
2023/10/23 07:45:51;;;;;;;4.90;3.57;;;21.90;97.80;;;;;;4981834;28;21607;-65
2023/10/23 07:48:18;;;;;;;3.43;3.13;;;21.90;97.80;;;;;;4982097;28;20466;-65
2023/10/23 07:50:44;;;;;;;3.13;2.77;;;21.90;97.80;;;;;;4984243;28;20483;-65
2023/10/23 07:53:12;;;;;;;4.00;3.47;;;21.90;97.80;;;;;;4978345;28;20469;-65
2023/10/23 07:55:38;;;;;;;6.90;4.40;;;21.90;97.80;;;;;;4980834;28;20468;-63
2023/10/23 07:58:05;;;;;;;4.30;3.90;;;21.90;98.10;;;;;;4977549;28;20457;-62
2023/10/23 08:00:33;;;;;;;5.80;3.73;;;21.90;98.00;;;;;;4977568;28;20478;-64
2023/10/23 08:03:00;;;;;;;10.53;3.90;;;21.90;98.10;;;;;;4983124;28;20474;-63
2023/10/23 08:05:27;;;;;;;11.33;4.00;;;21.90;98.10;;;;;;4980931;28;20578;-62
2023/10/23 08:07:54;;;;;;;9.03;4.30;;;21.90;98.10;;;;;;4982988;28;20470;-62
2023/10/23 08:10:20;;;;;;;6.57;4.37;;;22.00;98.00;;;;;;4983501;28;20470;-61
2023/10/23 08:12:47;;;;;;;3.30;3.00;;;22.00;98.10;;;;;;4983225;28;20487;-64
2023/10/23 08:15:15;;;;;;;8.37;3.83;;;22.00;98.20;;;;;;4980001;28;20597;-62
2023/10/23 08:17:43;;;;;;;5.47;4.00;;;22.00;98.30;;;;;;4973315;28;20534;-66
2023/10/23 08:20:10;;;;;;;7.13;4.70;;;22.00;98.50;;;;;;4976478;28;20467;-64
2023/10/23 08:22:37;;;;;;;4.90;4.37;;;22.00;98.40;;;;;;4980271;28;20500;-64
2023/10/23 08:25:04;;;;;;;4.80;4.40;;;22.00;98.60;;;;;;4983036;28;20474;-65
2023/10/23 08:27:31;;;;;;;5.83;4.53;;;22.00;98.60;;;;;;4982028;28;20472;-65
2023/10/23 08:29:58;;;;;;;6.43;3.80;;;22.00;98.60;;;;;;4985060;28;20470;-65
2023/10/23 08:32:25;;;;;;;4.47;3.40;;;22.00;98.70;;;;;;4978016;28;20465;-64
2023/10/23 08:34:54;;;;;;;4.23;3.50;;;22.10;98.90;;;;;;4980950;28;20991;-65
2023/10/23 08:37:21;;;;;;;3.77;3.47;;;22.10;98.90;;;;;;4972532;28;20468;-64
2023/10/23 08:39:48;;;;;;;3.70;3.40;;;22.10;98.90;;;;;;4983924;28;20996;-64
2023/10/23 08:42:15;;;;;;;4.27;3.10;;;22.10;99.00;;;;;;4978577;28;20472;-64
2023/10/23 08:44:43;;;;;;;4.40;4.00;;;22.10;98.90;;;;;;4983159;28;20557;-64
2023/10/23 08:47:10;;;;;;;4.40;3.33;;;22.10;98.90;;;;;;4979447;28;20569;-63
2023/10/23 08:49:37;;;;;;;4.00;3.60;;;22.20;98.90;;;;;;4980436;28;20490;-65
2023/10/23 08:52:09;;;;;;;4.53;3.50;;;22.20;99.00;;;;;;4982566;28;20976;-64
2023/10/23 08:54:36;;;;;;;5.00;4.23;;;22.20;99.00;;;;;;4978679;28;20460;-64
2023/10/23 08:57:04;;;;;;;4.30;3.40;;;22.10;98.90;;;;;;4981028;28;21028;-64
2023/10/23 08:59:31;;;;;;;5.17;3.90;;;22.20;98.90;;;;;;4980539;28;20490;-64
2023/10/23 09:01:58;;;;;;;3.67;3.27;;;22.20;98.90;;;;;;4979386;28;20483;-65
2023/10/23 09:04:25;;;;;;;4.23;3.57;;;22.20;99.00;;;;;;4975134;28;20470;-65
2023/10/23 09:06:52;;;;;;;3.53;3.23;;;22.20;99.00;;;;;;4982188;28;20485;-65
2023/10/23 09:09:21;;;;;;;5.57;3.60;;;22.20;99.10;;;;;;4979291;28;20520;-64
2023/10/23 09:11:49;;;;;;;4.70;3.00;;;22.20;99.20;;;;;;4980135;28;20538;-65
2023/10/23 09:14:24;;;;;;;3.87;3.50;;;22.20;99.20;;;;;;4979167;28;20460;-64
2023/10/23 09:16:52;;;;;;;5.73;3.47;;;22.30;99.30;;;;;;4980456;28;20459;-65
2023/10/23 09:19:27;;;;;;;3.80;3.20;;;22.20;99.70;;;;;;4978989;28;20470;-64
2023/10/23 09:21:55;;;;;;;4.67;3.77;;;22.20;99.20;;;;;;4979705;28;21035;-66
2023/10/23 09:24:24;;;;;;;5.13;3.57;;;22.20;99.20;;;;;;4980538;28;20471;-65
2023/10/23 09:26:51;;;;;;;3.40;3.13;;;22.30;99.30;;;;;;4980565;28;21908;-64
2023/10/23 09:29:22;;;;;;;3.77;3.30;;;22.20;99.10;;;;;;4973702;28;20475;-64
2023/10/23 09:31:50;;;;;;;3.53;3.20;;;22.30;99.20;;;;;;4979714;28;20978;-65
2023/10/23 09:34:18;;;;;;;4.50;3.57;;;22.20;99.20;;;;;;4977851;28;20569;-65
2023/10/23 09:36:45;;;;;;;4.40;3.80;;;22.20;99.20;;;;;;4979981;28;20471;-65
2023/10/23 09:39:12;;;;;;;3.27;3.00;;;22.20;99.20;;;;;;4972978;28;20464;-64
2023/10/23 09:41:41;;;;;;;3.17;2.87;;;22.20;99.10;;;;;;4981143;28;20456;-64
2023/10/23 09:44:08;;;;;;;4.27;3.70;;;22.30;99.20;;;;;;4983118;28;20475;-64
2023/10/23 09:46:35;;;;;;;3.53;3.23;;;22.30;99.20;;;;;;4977180;28;20475;-64
2023/10/23 09:49:03;;;;;;;3.90;3.37;;;22.30;99.60;;;;;;4979556;28;20470;-65
2023/10/23 09:51:36;;;;;;;3.37;3.10;;;22.20;99.20;;;;;;4976857;28;20470;-65
2023/10/23 09:54:10;;;;;;;3.70;3.33;;;22.20;99.20;;;;;;4976808;28;22100;-65
2023/10/23 09:56:46;;;;;;;3.53;3.23;;;22.30;99.30;;;;;;4972904;28;20800;-63
2023/10/23 09:59:17;;;;;;;9.70;3.13;;;22.20;99.40;;;;;;4976136;28;20948;-63
2023/10/23 10:01:46;;;;;;;4.80;3.70;;;22.20;99.50;;;;;;4976922;28;20541;-65
2023/10/23 10:04:16;;;;;;;4.33;2.70;;;22.20;99.60;;;;;;4975623;28;20466;-63
2023/10/23 10:06:47;;;;;;;3.87;3.57;;;22.30;99.80;;;;;;4977893;28;21229;-65
2023/10/23 10:09:14;;;;;;;4.30;3.90;;;22.30;99.90;;;;;;4972771;28;20542;-62
2023/10/23 10:11:43;;;;;;;3.67;3.37;;;22.30;99.90;;;;;;4977489;28;20456;-62
2023/10/23 10:14:11;;;;;;;3.83;2.93;;;22.30;99.90;;;;;;4973104;28;20674;-62
2023/10/23 10:16:39;;;;;;;4.03;3.63;;;22.30;99.90;;;;;;4974666;28;20937;-62
2023/10/23 10:19:06;;;;;;;4.27;3.07;;;22.40;99.90;;;;;;4977125;28;20671;-62
2023/10/23 10:21:48;;;;;;;2.60;2.40;;;22.30;99.90;;;;;;4981763;28;20464;-62
2023/10/23 10:24:15;;;;;;;3.30;3.00;;;22.30;99.90;;;;;;4977023;28;20471;-55
2023/10/23 10:26:44;;;;;;;3.30;2.93;;;22.40;99.90;;;;;;4977113;28;20486;-60
2023/10/23 10:29:11;;;;;;;4.63;3.10;;;22.40;99.90;;;;;;4975942;28;20490;-61
2023/10/23 10:32:04;;;;;;;7.13;2.60;;;22.50;99.90;;;;;;4975081;28;21389;-64
2023/10/23 10:34:32;;;;;;;3.37;3.07;;;22.40;99.90;;;;;;4973319;28;20460;-61
2023/10/23 10:36:59;;;;;;;3.03;2.83;;;22.40;99.90;;;;;;4979614;28;20464;-64
2023/10/23 10:40:04;;;;;;;3.50;3.00;;;22.40;99.90;;;;;;4979496;28;20987;-64
2023/10/23 10:42:38;;;;;;;3.30;3.00;;;22.50;99.90;;;;;;4977865;28;20459;-64
2023/10/23 10:45:18;;;;;;;2.77;2.57;;;22.50;99.90;;;;;;4980781;28;20541;-61
2023/10/23 10:47:48;;;;;;;3.07;2.77;;;22.60;99.90;;;;;;4979633;28;20868;-62
2023/10/23 10:50:31;;;;;;;3.27;2.80;;;22.70;99.90;;;;;;4973654;28;20809;-61
2023/10/23 10:53:00;;;;;;;2.93;2.67;;;22.60;99.90;;;;;;4978955;28;20471;-60
2023/10/23 10:55:27;;;;;;;3.03;2.50;;;22.60;99.90;;;;;;4979606;28;20464;-59
2023/10/23 10:57:56;;;;;;;4.40;3.07;;;22.60;99.90;;;;;;4981298;28;21077;-61
2023/10/23 11:00:23;;;;;;;2.50;2.30;;;22.70;99.90;;;;;;4977330;28;20474;-60
2023/10/23 11:02:50;;;;;;;3.03;2.50;;;22.70;99.90;;;;;;4977187;28;20626;-57
2023/10/23 11:05:17;;;;;;;3.33;2.40;;;22.70;99.90;;;;;;4974334;28;20474;-61
2023/10/23 11:07:47;;;;;;;2.47;2.27;;;22.70;99.90;;;;;;4976765;28;20556;-62
2023/10/23 11:10:14;;;;;;;2.70;2.50;;;22.70;99.90;;;;;;4980143;28;20462;-62
2023/10/23 11:12:41;;;;;;;3.13;2.80;;;22.70;99.90;;;;;;4977532;28;20473;-62
2023/10/23 11:15:10;;;;;;;2.43;2.23;;;22.70;99.90;;;;;;4974627;28;20820;-59
2023/10/23 11:17:37;;;;;;;3.20;2.90;;;22.70;99.90;;;;;;4978178;28;20475;-60
2023/10/23 11:20:08;;;;;;;3.00;2.80;;;22.70;99.90;;;;;;4979766;28;20963;-58
2023/10/23 11:22:36;;;;;;;2.60;2.40;;;22.80;99.90;;;;;;4978899;28;20468;-59
2023/10/23 11:25:06;;;;;;;3.20;2.90;;;22.80;99.90;;;;;;4978388;28;20558;-60
2023/10/23 11:27:33;;;;;;;2.47;2.27;;;22.70;99.90;;;;;;4978966;28;20471;-60
2023/10/23 11:29:59;;;;;;;4.13;2.80;;;22.70;99.90;;;;;;4974818;28;21104;-59
2023/10/23 11:32:28;;;;;;;3.27;2.23;;;22.70;99.90;;;;;;4973906;28;20468;-59
2023/10/23 11:35:01;;;;;;;3.90;3.00;;;22.80;99.90;;;;;;4979167;28;20463;-60
2023/10/23 11:37:28;;;;;;;3.33;3.00;;;22.80;99.90;;;;;;4980359;28;20541;-58
2023/10/23 11:39:56;;;;;;;2.70;2.50;;;22.80;99.90;;;;;;4979683;28;20470;-60
2023/10/23 11:42:23;;;;;;;4.47;2.70;;;22.80;99.60;;;;;;4976526;28;20527;-58
2023/10/23 11:44:50;;;;;;;5.13;2.50;;;22.80;99.50;;;;;;4979247;28;20882;-62
2023/10/23 11:47:17;;;;;;;2.73;2.53;;;22.70;99.40;;;;;;4979590;28;21009;-61
2023/10/23 11:49:50;;;;;;;2.90;2.60;;;22.70;99.60;;;;;;4979248;28;20474;-61
2023/10/23 11:52:17;;;;;;;2.30;2.07;;;22.80;99.60;;;;;;4976985;28;20649;-59
2023/10/23 11:54:43;;;;;;;2.40;2.20;;;22.80;99.80;;;;;;4977344;28;20464;-60
2023/10/23 11:57:12;;;;;;;3.10;2.90;;;22.80;99.80;;;;;;4978237;28;21342;-61
2023/10/23 11:59:40;;;;;;;3.00;2.80;;;23.00;99.90;;;;;;4979177;28;20472;-61
2023/10/23 12:02:07;;;;;;;2.40;2.10;;;22.90;99.90;;;;;;4980240;28;20498;-60
2023/10/23 12:04:35;;;;;;;2.40;2.20;;;23.00;99.90;;;;;;4975856;28;20457;-62
2023/10/23 12:07:04;;;;;;;2.73;2.53;;;23.00;99.90;;;;;;4979943;28;20476;-61
2023/10/23 12:09:31;;;;;;;2.80;2.60;;;22.90;99.90;;;;;;4977187;28;20833;-62
2023/10/23 12:11:57;;;;;;;3.23;2.93;;;23.00;99.90;;;;;;4979905;28;20465;-60
2023/10/23 12:14:24;;;;;;;2.87;2.67;;;22.90;99.90;;;;;;4976028;28;20465;-61
2023/10/23 12:16:51;;;;;;;2.80;2.60;;;23.00;99.90;;;;;;4980973;28;20870;-58
2023/10/23 12:19:19;;;;;;;3.27;2.50;;;23.10;99.90;;;;;;4978631;28;20463;-62
2023/10/23 12:21:45;;;;;;;3.03;2.53;;;23.00;99.90;;;;;;4979397;28;20528;-63
2023/10/23 12:24:13;;;;;;;3.17;2.93;;;23.10;99.90;;;;;;4978372;28;20926;-61
2023/10/23 12:26:40;;;;;;;2.40;2.20;;;23.00;99.90;;;;;;4982445;28;21075;-58
2023/10/23 12:29:09;;;;;;;2.30;2.10;;;23.00;99.90;;;;;;4981871;28;20472;-60
2023/10/23 12:31:36;;;;;;;3.00;2.70;;;23.00;99.90;;;;;;4983134;28;20460;-56
2023/10/23 12:34:04;;;;;;;2.90;2.70;;;23.00;99.90;;;;;;4981986;28;20458;-60
2023/10/23 12:36:31;;;;;;;2.57;2.37;;;23.10;99.90;;;;;;4983159;28;20477;-55
2023/10/23 12:38:58;;;;;;;2.53;2.33;;;23.10;99.90;;;;;;4982367;28;20515;-58
2023/10/23 12:41:26;;;;;;;2.57;2.37;;;23.10;99.90;;;;;;4980975;28;20481;-60
2023/10/23 12:43:52;;;;;;;2.50;2.30;;;23.10;99.90;;;;;;4981191;28;20482;-59
2023/10/23 12:46:20;;;;;;;2.60;2.40;;;23.10;99.90;;;;;;4981640;28;20474;-58
2023/10/23 12:48:46;;;;;;;2.67;2.47;;;23.20;99.90;;;;;;4983933;28;20474;-56
2023/10/23 12:51:13;;;;;;;2.57;2.37;;;23.20;99.90;;;;;;4983806;28;20477;-59